Time;durP1;ratioP1;P1;durP2;ratioP2;P2;SDS_P1;SDS_P2;PMS_P1;PMS_P2;Temp;Humidity;BMP_temperature;BMP_pressure;BME280_temperature;BME280_humidity;BME280_pressure;Samples;Min_cycle;Max_cycle;Signal;HPM_P1;HPM_P2
2023/01/31 00:04:44;;;;;;;8.10;4.20;;;;;;;1.02;87.75;98089.92;220884;1280;22673;-76
2023/01/31 00:09:46;;;;;;;9.70;4.80;;;;;;;1.04;88.28;98087.98;220983;1278;22568;-76
2023/01/31 00:14:52;;;;;;;7.20;4.20;;;;;;;1.08;88.30;98085.77;220890;1272;22562;-76
2023/01/31 00:19:54;;;;;;;7.80;3.70;;;;;;;1.10;88.12;98089.77;220733;1278;24269;-75
2023/01/31 00:24:56;;;;;;;9.00;4.70;;;;;;;1.12;88.19;98090.44;220936;1278;22562;-76
2023/01/31 00:29:58;;;;;;;8.80;3.80;;;;;;;1.13;87.93;98092.52;220910;1281;25404;-76
2023/01/31 00:35:00;;;;;;;7.80;2.90;;;;;;;1.16;88.02;98095.63;220900;1280;23162;-77
2023/01/31 00:40:03;;;;;;;6.60;3.20;;;;;;;1.21;88.45;98097.46;220993;1281;23104;-75
2023/01/31 00:45:06;;;;;;;6.20;2.50;;;;;;;1.26;88.50;98100.82;220858;1278;24222;-75
2023/01/31 00:50:12;;;;;;;5.70;2.00;;;;;;;1.34;88.58;98106.33;220893;1278;24276;-76
2023/01/31 00:55:15;;;;;;;8.80;2.20;;;;;;;1.42;88.70;98108.27;220947;1281;24227;-76
2023/01/31 01:00:17;;;;;;;9.20;2.00;;;;;;;1.52;88.68;98109.60;220965;1281;22556;-75
2023/01/31 01:05:20;;;;;;;8.90;1.90;;;;;;;1.61;88.30;98128.90;220871;1278;22557;-78
2023/01/31 01:10:23;;;;;;;11.10;2.40;;;;;;;1.67;88.07;98129.86;220971;1281;22547;-76
2023/01/31 01:15:25;;;;;;;8.40;1.80;;;;;;;1.74;87.99;98139.09;221011;1277;23762;-76
2023/01/31 01:20:30;;;;;;;9.30;1.70;;;;;;;1.84;87.75;98150.79;221157;1281;22773;-75
2023/01/31 01:25:41;;;;;;;5.80;1.50;;;;;;;1.90;87.29;98144.59;220844;1281;25297;-75
2023/01/31 01:30:45;;;;;;;9.80;2.20;;;;;;;1.93;87.12;98151.65;221153;1278;25495;-76
2023/01/31 01:35:47;;;;;;;6.00;1.40;;;;;;;1.95;86.90;98158.57;220893;1280;22665;-76
2023/01/31 01:40:49;;;;;;;4.90;1.50;;;;;;;1.95;86.56;98183.35;220984;1281;23538;-76
2023/01/31 01:45:52;;;;;;;9.20;1.90;;;;;;;1.88;86.31;98190.10;220955;1281;25397;-76
2023/01/31 01:50:54;;;;;;;9.30;2.00;;;;;;;1.70;86.42;98178.14;220946;1281;25372;-76
2023/01/31 01:56:02;;;;;;;12.10;2.00;;;;;;;1.59;86.41;98171.55;220864;1259;22601;-76
2023/01/31 02:01:09;;;;;;;15.70;2.30;;;;;;;1.53;86.74;98172.80;220834;1281;22894;-77
2023/01/31 02:06:14;;;;;;;10.40;2.40;;;;;;;1.50;86.80;98168.83;221043;1280;25403;-77
2023/01/31 02:11:25;;;;;;;16.50;2.40;;;;;;;1.47;87.18;98171.55;220860;1281;22537;-77
2023/01/31 02:16:28;;;;;;;8.40;2.10;;;;;;;1.47;87.17;98175.41;221034;1282;24350;-77
2023/01/31 02:21:36;;;;;;;9.90;2.20;;;;;;;1.48;86.94;98180.27;220929;1281;22552;-76
2023/01/31 02:26:52;;;;;;;11.60;2.20;;;;;;;1.52;87.18;98187.73;220902;1280;22883;-76
2023/01/31 02:32:29;;;;;;;9.20;1.70;;;;;;;1.59;87.27;98198.32;221073;1278;22556;-76
2023/01/31 02:38:01;;;;;;;7.30;1.80;;;;;;;1.66;86.97;98204.00;220775;1280;204383;-76
2023/01/31 02:43:22;;;;;;;8.80;1.70;;;;;;;1.70;86.60;98212.34;220895;1278;22594;-76
2023/01/31 02:48:35;;;;;;;9.60;1.80;;;;;;;1.72;86.33;98220.66;221204;1281;22551;-75
2023/01/31 02:53:47;;;;;;;6.50;1.90;;;;;;;1.75;86.52;98228.38;221125;1278;22694;-75
2023/01/31 02:59:01;;;;;;;8.70;1.60;;;;;;;1.79;86.08;98238.73;220938;1282;22544;-75
2023/01/31 03:04:08;;;;;;;10.50;1.50;;;;;;;1.83;86.24;98241.54;220924;1279;24273;-75
2023/01/31 03:09:20;;;;;;;7.20;1.50;;;;;;;1.88;85.78;98251.83;220927;1281;22536;-76
2023/01/31 03:14:32;;;;;;;6.60;1.30;;;;;;;1.92;85.70;98264.94;220967;1279;22523;-76
2023/01/31 03:19:50;;;;;;;7.10;1.70;;;;;;;1.98;85.27;98282.95;220904;1278;25252;-76
2023/01/31 03:24:53;;;;;;;9.20;1.80;;;;;;;2.02;85.30;98293.33;220757;1282;22746;-76
2023/01/31 03:30:04;;;;;;;2.40;0.70;;;;;;;2.02;84.71;98312.48;220929;1281;22551;-75
2023/01/31 03:35:08;;;;;;;3.80;0.80;;;;;;;1.81;84.57;98310.28;220935;1281;22641;-75
2023/01/31 03:40:20;;;;;;;3.00;0.70;;;;;;;1.59;84.64;98322.04;221015;1280;23949;-75
2023/01/31 03:45:35;;;;;;;4.10;1.20;;;;;;;1.42;85.31;98309.09;221022;1279;22626;-75
2023/01/31 03:50:45;;;;;;;3.90;0.80;;;;;;;1.27;85.44;98326.58;221006;1282;22956;-75
2023/01/31 03:55:51;;;;;;;4.90;1.40;;;;;;;1.17;85.64;98360.34;220968;1279;25397;-75
2023/01/31 04:00:57;;;;;;;3.60;1.10;;;;;;;1.06;86.47;98354.31;220992;1282;23773;-74
2023/01/31 04:06:00;;;;;;;4.30;1.10;;;;;;;0.97;86.73;98355.32;221156;1282;24234;-75
2023/01/31 04:11:12;;;;;;;8.20;2.80;;;;;;;0.89;86.81;98358.30;220948;1278;22595;-75
2023/01/31 04:16:15;;;;;;;8.20;2.20;;;;;;;0.86;87.17;98359.82;220982;1279;23009;-75
2023/01/31 04:21:17;;;;;;;7.70;2.10;;;;;;;0.88;87.20;98366.41;220915;1282;22546;-76
2023/01/31 04:26:19;;;;;;;9.70;1.70;;;;;;;0.94;87.01;98370.13;220957;1282;22639;-78
2023/01/31 04:31:21;;;;;;;7.90;2.00;;;;;;;1.03;87.00;98378.01;220955;1278;25362;-75
2023/01/31 04:36:24;;;;;;;7.80;1.80;;;;;;;1.16;87.00;98384.02;220918;1282;23764;-75
2023/01/31 04:41:27;;;;;;;9.60;1.40;;;;;;;1.28;86.21;98394.36;220858;1278;25344;-76
2023/01/31 04:46:29;;;;;;;5.40;1.60;;;;;;;1.38;85.51;98395.50;220841;1281;24201;-76
2023/01/31 04:51:31;;;;;;;6.50;1.50;;;;;;;1.45;85.36;98404.38;220833;1275;24284;-76
2023/01/31 04:56:33;;;;;;;11.00;3.00;;;;;;;1.50;84.66;98412.10;220853;1279;22550;-75
2023/01/31 05:01:36;;;;;;;7.60;1.40;;;;;;;1.50;84.55;98416.95;220763;1282;24415;-75
2023/01/31 05:06:38;;;;;;;7.80;1.50;;;;;;;1.42;84.42;98428.75;220873;1278;25430;-76
2023/01/31 05:11:41;;;;;;;3.90;1.50;;;;;;;1.29;84.84;98448.58;220834;1282;22590;-75
2023/01/31 05:16:46;;;;;;;7.10;1.40;;;;;;;1.15;85.25;98447.86;221031;1282;24280;-76
2023/01/31 05:21:54;;;;;;;8.20;1.60;;;;;;;1.06;85.51;98441.45;221069;1282;22536;-76
2023/01/31 05:27:00;;;;;;;7.10;1.90;;;;;;;0.98;85.83;98451.45;221025;1278;22593;-76
2023/01/31 05:32:02;;;;;;;9.90;2.00;;;;;;;0.93;86.01;98452.25;221086;1282;24198;-76
2023/01/31 05:37:08;;;;;;;8.20;2.20;;;;;;;0.91;86.43;98454.70;220886;1282;24373;-76
2023/01/31 05:42:13;;;;;;;8.30;2.30;;;;;;;0.89;86.27;98459.18;221005;1280;22550;-77
2023/01/31 05:47:15;;;;;;;7.40;1.80;;;;;;;0.88;86.40;98462.61;220818;1280;22572;-75
2023/01/31 05:52:17;;;;;;;9.00;3.40;;;;;;;0.89;86.30;98468.42;220942;1279;22560;-76
2023/01/31 05:57:20;;;;;;;13.10;2.70;;;;;;;0.90;86.17;98483.73;220972;1279;24228;-79
2023/01/31 06:02:23;;;;;;;7.70;1.60;;;;;;;0.91;86.04;98499.59;220923;1267;25403;-76
2023/01/31 06:07:25;;;;;;;10.20;2.60;;;;;;;0.94;85.80;98504.52;220979;1279;22627;-77
2023/01/31 06:12:30;;;;;;;7.40;1.80;;;;;;;0.97;85.43;98505.66;220954;1277;22594;-76
2023/01/31 06:17:33;;;;;;;10.90;2.40;;;;;;;0.99;84.91;98516.21;220887;1282;23765;-77
2023/01/31 06:22:35;;;;;;;12.10;3.30;;;;;;;1.00;84.83;98527.76;220999;1279;22567;-76
2023/01/31 06:27:37;;;;;;;12.40;2.60;;;;;;;1.01;84.73;98538.73;220950;1280;22580;-76
2023/01/31 06:32:39;;;;;;;9.80;2.20;;;;;;;1.03;84.52;98546.56;221082;1279;25521;-76
2023/01/31 06:37:42;;;;;;;8.30;1.90;;;;;;;1.08;84.38;98553.27;221015;1279;22540;-76
2023/01/31 06:42:45;;;;;;;5.70;2.40;;;;;;;1.13;83.93;98559.23;221357;1277;24410;-77
2023/01/31 06:47:47;;;;;;;7.60;1.40;;;;;;;1.20;83.85;98565.73;221422;1267;23137;-76
2023/01/31 06:52:59;;;;;;;6.90;1.90;;;;;;;1.27;83.75;98570.98;221320;1274;24208;-75
2023/01/31 06:58:06;;;;;;;6.10;1.60;;;;;;;1.34;83.05;98571.73;221548;1273;25057;-78
2023/01/31 07:03:09;;;;;;;9.40;4.20;;;;;;;1.41;82.74;98582.26;222882;1267;139846;-75
2023/01/31 07:08:12;;;;;;;6.20;1.40;;;;;;;1.48;82.17;98589.61;221817;1257;139067;-77
2023/01/31 07:13:22;;;;;;;10.80;2.10;;;;;;;1.55;81.96;98597.70;221976;1257;138890;-77
2023/01/31 07:18:24;;;;;;;8.60;1.80;;;;;;;1.61;81.25;98603.70;221646;1261;139578;-77
2023/01/31 07:23:29;;;;;;;7.50;1.70;;;;;;;1.69;81.23;98613.63;221869;1264;22533;-77
2023/01/31 07:28:35;;;;;;;5.90;1.70;;;;;;;1.73;81.04;98622.83;221737;1260;138617;-77
2023/01/31 07:33:38;;;;;;;6.70;1.70;;;;;;;1.75;81.10;98631.83;221973;1263;138444;-78
2023/01/31 07:38:41;;;;;;;8.90;2.30;;;;;;;1.77;81.00;98641.48;222471;1265;138272;-77
2023/01/31 07:43:43;;;;;;;8.50;2.40;;;;;;;1.81;81.36;98640.50;222004;1257;138371;-77
2023/01/31 07:48:47;;;;;;;12.10;2.30;;;;;;;1.83;81.10;98646.26;221833;1258;138722;-77
2023/01/31 07:53:51;;;;;;;8.80;2.20;;;;;;;1.85;80.54;98643.66;221749;1257;22726;-77
2023/01/31 07:58:55;;;;;;;9.30;2.10;;;;;;;1.87;80.56;98645.50;221707;1272;138371;-76
2023/01/31 08:03:57;;;;;;;8.10;2.40;;;;;;;1.89;80.56;98649.15;221591;1256;138205;-77
2023/01/31 08:09:19;;;;;;;11.30;2.60;;;;;;;1.90;80.41;98656.91;221609;1258;138388;-77
2023/01/31 08:14:24;;;;;;;7.20;2.10;;;;;;;1.91;80.23;98669.48;221695;1267;138418;-78
2023/01/31 08:19:26;;;;;;;7.70;2.00;;;;;;;1.94;80.32;98668.84;221698;1273;138299;-77
2023/01/31 08:24:30;;;;;;;10.30;1.80;;;;;;;2.00;79.51;98679.80;221650;1273;138684;-75
2023/01/31 08:29:32;;;;;;;9.30;2.00;;;;;;;2.05;79.48;98687.28;222067;1277;23036;-78
2023/01/31 08:34:38;;;;;;;8.30;2.10;;;;;;;2.10;79.18;98690.02;221637;1272;137997;-76
2023/01/31 08:39:44;;;;;;;9.20;2.50;;;;;;;2.15;78.92;98701.73;221717;1267;138070;-78
2023/01/31 08:44:46;;;;;;;9.00;2.20;;;;;;;2.20;78.68;98711.54;221828;1273;138217;-78
2023/01/31 08:49:51;;;;;;;7.40;1.90;;;;;;;2.25;78.34;98710.23;221535;1280;138285;-77
2023/01/31 08:54:53;;;;;;;7.30;1.80;;;;;;;2.29;77.78;98723.88;221700;1258;138289;-77
2023/01/31 08:59:55;;;;;;;5.60;1.80;;;;;;;2.36;77.56;98725.83;221752;1273;22540;-77
2023/01/31 09:04:57;;;;;;;6.60;1.70;;;;;;;2.42;76.86;98728.07;221601;1273;138544;-77
2023/01/31 09:10:00;;;;;;;6.00;1.30;;;;;;;2.46;76.00;98735.52;221653;1280;138931;-78
2023/01/31 09:15:03;;;;;;;7.70;2.10;;;;;;;2.54;76.13;98745.33;221625;1267;138354;-76
2023/01/31 09:20:08;;;;;;;7.40;1.70;;;;;;;2.59;76.09;98749.20;221580;1275;138332;-77
2023/01/31 09:25:11;;;;;;;8.30;2.30;;;;;;;2.58;75.78;98755.17;221907;1267;137285;-77
2023/01/31 09:30:13;;;;;;;8.30;2.00;;;;;;;2.58;76.09;98756.91;221614;1265;138512;-78
2023/01/31 09:35:17;;;;;;;6.70;1.80;;;;;;;2.60;75.78;98758.29;221598;1266;23406;-76
2023/01/31 09:40:23;;;;;;;6.80;1.90;;;;;;;2.62;74.96;98764.00;221995;1273;137866;-77
2023/01/31 09:45:30;;;;;;;8.90;2.50;;;;;;;2.65;75.44;98761.89;221730;1264;138328;-76
2023/01/31 09:50:39;;;;;;;3.70;1.50;;;;;;;2.67;75.35;98764.77;221746;1273;138273;-75
2023/01/31 09:56:13;;;;;;;6.20;1.50;;;;;;;2.71;75.35;98775.41;221988;1265;138276;-77
2023/01/31 10:01:42;;;;;;;7.90;1.50;;;;;;;2.70;75.15;98780.61;222062;1270;138803;-79
2023/01/31 10:07:16;;;;;;;5.10;1.50;;;;;;;2.70;74.86;98774.74;222297;1259;138249;-78
2023/01/31 10:12:24;;;;;;;7.50;2.20;;;;;;;2.71;75.13;98773.43;222400;1265;138237;-76
2023/01/31 10:17:38;;;;;;;6.30;1.70;;;;;;;2.72;74.41;98776.34;222057;1267;22536;-76
2023/01/31 10:23:08;;;;;;;6.30;1.70;;;;;;;2.72;74.52;98775.13;221869;1267;138048;-77
2023/01/31 10:28:21;;;;;;;6.30;1.80;;;;;;;2.79;74.79;98769.81;221865;1260;138170;-78
2023/01/31 10:33:34;;;;;;;7.70;1.80;;;;;;;2.89;74.61;98761.77;221808;1272;138076;-80
2023/01/31 10:38:53;;;;;;;6.70;2.10;;;;;;;3.02;74.64;98756.16;221643;1260;140306;-76
2023/01/31 10:44:05;;;;;;;6.50;2.20;;;;;;;3.17;74.28;98750.23;225389;1267;140824;-76
2023/01/31 10:49:09;;;;;;;6.00;1.60;;;;;;;3.30;73.96;98741.20;222192;1277;139058;-78
2023/01/31 10:54:30;;;;;;;5.90;1.50;;;;;;;3.32;73.08;98742.98;221672;1272;138423;-78
2023/01/31 10:59:41;;;;;;;7.00;1.70;;;;;;;3.30;72.85;98738.77;221866;1272;22669;-78
2023/01/31 11:04:43;;;;;;;6.00;1.60;;;;;;;3.31;73.04;98730.17;221604;1272;137959;-79
2023/01/31 11:09:53;;;;;;;8.90;1.90;;;;;;;3.31;73.14;98729.65;221685;1275;138206;-81
2023/01/31 11:15:19;;;;;;;5.70;1.70;;;;;;;3.26;73.65;98729.39;221738;1272;138301;-79
2023/01/31 11:20:36;;;;;;;4.90;1.90;;;;;;;3.20;72.99;98720.59;221601;1272;138209;-77
2023/01/31 11:25:52;;;;;;;7.40;1.80;;;;;;;3.18;73.94;98716.95;221899;1260;138355;-78
2023/01/31 11:30:55;;;;;;;4.90;1.60;;;;;;;3.23;74.21;98713.14;221741;1269;138811;-79
2023/01/31 11:35:57;;;;;;;6.50;1.90;;;;;;;3.34;73.14;98715.79;221699;1259;25483;-77
2023/01/31 11:41:32;;;;;;;4.30;1.60;;;;;;;3.41;73.32;98708.80;221756;1265;22702;-78
2023/01/31 11:46:56;;;;;;;6.90;2.20;;;;;;;3.49;72.81;98701.45;221483;1273;138174;-79
2023/01/31 11:52:11;;;;;;;6.90;2.50;;;;;;;3.56;72.95;98709.33;221618;1256;138239;-78
2023/01/31 11:57:40;;;;;;;6.10;2.00;;;;;;;3.59;73.05;98700.90;221689;1264;138270;-76
2023/01/31 12:02:42;;;;;;;8.30;1.90;;;;;;;3.60;72.97;98692.79;221798;1266;138370;-81
2023/01/31 12:07:49;;;;;;;4.80;1.70;;;;;;;3.56;73.34;98684.92;221638;1274;138250;-77
2023/01/31 12:12:51;;;;;;;6.30;2.20;;;;;;;3.55;73.82;98679.16;221579;1272;138282;-77
2023/01/31 12:17:54;;;;;;;10.50;3.30;;;;;;;3.50;74.03;98672.61;221823;1272;24383;-78
2023/01/31 12:23:31;;;;;;;10.50;3.10;;;;;;;3.45;74.08;98671.89;221429;1263;138904;-78
2023/01/31 12:28:57;;;;;;;8.10;2.50;;;;;;;3.39;74.52;98671.76;221938;1276;138261;-78
2023/01/31 12:34:12;;;;;;;8.40;2.70;;;;;;;3.21;74.97;98679.27;221655;1272;138554;-76
2023/01/31 12:39:36;;;;;;;12.10;3.20;;;;;;;3.10;75.74;98672.57;221481;1272;138236;-74
2023/01/31 12:44:46;;;;;;;8.70;3.10;;;;;;;3.18;76.40;98671.00;221571;1272;138451;-75
2023/01/31 12:50:33;;;;;;;12.20;3.40;;;;;;;3.25;76.48;98655.60;221679;1265;138650;-72
2023/01/31 12:55:45;;;;;;;10.90;3.20;;;;;;;3.26;76.06;98645.00;222034;1265;138429;-76
2023/01/31 13:01:08;;;;;;;13.10;4.20;;;;;;;3.33;76.53;98640.38;221608;1272;138511;-74
2023/01/31 13:06:20;;;;;;;14.70;5.50;;;;;;;3.46;76.97;98643.79;221805;1272;138441;-75
2023/01/31 13:11:37;;;;;;;9.20;3.60;;;;;;;3.60;76.76;98638.30;221708;1259;24326;-75
2023/01/31 13:16:45;;;;;;;9.70;3.80;;;;;;;3.64;76.54;98636.15;222021;1265;138171;-77
2023/01/31 13:21:58;;;;;;;8.10;3.30;;;;;;;3.64;76.46;98636.45;221596;1273;138105;-74
2023/01/31 13:27:09;;;;;;;10.80;3.90;;;;;;;3.59;76.41;98629.11;221520;1273;138452;-75
2023/01/31 13:32:26;;;;;;;11.50;4.90;;;;;;;3.52;76.79;98629.10;221677;1273;138446;-75
2023/01/31 13:37:34;;;;;;;7.30;3.90;;;;;;;3.47;76.92;98627.12;221667;1269;138521;-75
2023/01/31 13:42:36;;;;;;;6.60;2.90;;;;;;;3.41;77.05;98626.17;221494;1279;139039;-76
2023/01/31 13:47:47;;;;;;;9.40;4.00;;;;;;;3.24;77.66;98624.81;221629;1280;25431;-76
2023/01/31 13:52:55;;;;;;;9.90;4.00;;;;;;;3.03;77.75;98633.77;221687;1266;137917;-72
2023/01/31 13:58:04;;;;;;;9.10;3.50;;;;;;;2.89;78.15;98622.93;221436;1265;138130;-74
2023/01/31 14:03:12;;;;;;;8.00;3.20;;;;;;;2.73;78.42;98628.09;221687;1272;138257;-75
2023/01/31 14:08:26;;;;;;;7.90;2.50;;;;;;;2.62;79.07;98625.32;221746;1276;138442;-74
2023/01/31 14:13:36;;;;;;;8.60;2.80;;;;;;;2.58;79.51;98618.51;221593;1280;138389;-76
2023/01/31 14:18:45;;;;;;;8.00;3.50;;;;;;;2.63;79.89;98614.41;221716;1266;140164;-75
2023/01/31 14:23:48;;;;;;;6.60;2.60;;;;;;;2.69;80.21;98603.81;221949;1272;22640;-75
2023/01/31 14:28:50;;;;;;;6.60;2.60;;;;;;;2.74;80.12;98598.23;222148;1272;138022;-74
2023/01/31 14:33:56;;;;;;;6.10;1.90;;;;;;;2.76;80.08;98600.47;221708;1273;138112;-77
2023/01/31 14:39:37;;;;;;;6.30;2.40;;;;;;;2.65;80.05;98598.02;221126;1259;830063;-77
2023/01/31 14:44:51;;;;;;;5.80;2.50;;;;;;;2.57;80.12;98592.57;221574;1274;138274;-76
2023/01/31 14:50:28;;;;;;;5.70;2.80;;;;;;;2.48;80.57;98590.41;221765;1272;138732;-78
2023/01/31 14:55:54;;;;;;;8.40;3.80;;;;;;;2.39;80.84;98586.20;221543;1267;139162;-75
2023/01/31 15:00:59;;;;;;;7.40;4.30;;;;;;;2.34;81.23;98589.43;221759;1276;138287;-78
2023/01/31 15:06:14;;;;;;;10.70;5.60;;;;;;;2.31;81.02;98586.91;221819;1273;138288;-76
2023/01/31 15:11:32;;;;;;;10.60;5.60;;;;;;;2.25;81.25;98580.36;221559;1279;22558;-76
2023/01/31 15:16:43;;;;;;;9.40;4.10;;;;;;;2.20;81.39;98574.62;221859;1270;25344;-78
2023/01/31 15:21:50;;;;;;;8.60;3.50;;;;;;;2.13;81.42;98574.86;221475;1275;24259;-77
2023/01/31 15:26:58;;;;;;;6.90;3.50;;;;;;;2.03;81.68;98575.44;221401;1280;25248;-77
2023/01/31 15:32:18;;;;;;;12.50;4.70;;;;;;;1.96;81.96;98568.25;221538;1280;24295;-79
2023/01/31 15:37:27;;;;;;;11.70;5.00;;;;;;;1.90;82.03;98563.31;221528;1277;24218;-77
2023/01/31 15:42:32;;;;;;;11.00;5.20;;;;;;;1.85;82.00;98552.97;221513;1276;25417;-75
2023/01/31 15:47:34;;;;;;;12.90;6.00;;;;;;;1.85;82.19;98553.19;221433;1266;25432;-76
2023/01/31 15:52:36;;;;;;;15.30;7.70;;;;;;;1.84;82.16;98549.92;221535;1278;24209;-78
2023/01/31 15:57:55;;;;;;;16.00;7.80;;;;;;;1.82;82.42;98539.04;221447;1280;25304;-77
2023/01/31 16:02:59;;;;;;;21.50;9.20;;;;;;;1.78;82.43;98541.46;221423;1278;22536;-77
2023/01/31 16:08:05;;;;;;;22.40;9.50;;;;;;;1.76;82.53;98542.98;221406;1280;22551;-77
2023/01/31 16:13:08;;;;;;;17.70;8.50;;;;;;;1.77;82.59;98548.27;221538;1276;23899;-77
2023/01/31 16:18:11;;;;;;;17.90;8.90;;;;;;;1.80;82.52;98551.54;221434;1275;22592;-77
2023/01/31 16:23:27;;;;;;;21.30;9.60;;;;;;;1.80;82.57;98553.07;221416;1275;22670;-76
2023/01/31 16:28:41;;;;;;;20.40;10.00;;;;;;;1.77;82.76;98558.73;221364;1280;25304;-76
2023/01/31 16:33:49;;;;;;;24.00;11.50;;;;;;;1.74;82.84;98564.23;221236;1278;23024;-75
2023/01/31 16:39:05;;;;;;;19.90;10.00;;;;;;;1.72;83.11;98562.30;221597;1275;22539;-76
2023/01/31 16:44:17;;;;;;;20.80;10.90;;;;;;;1.71;83.10;98561.73;221569;1278;22589;-76
2023/01/31 16:49:28;;;;;;;17.50;9.50;;;;;;;1.69;83.31;98554.07;221594;1280;24157;-77
2023/01/31 16:54:43;;;;;;;14.90;8.70;;;;;;;1.61;83.32;98542.44;221623;1276;25456;-77
2023/01/31 16:59:48;;;;;;;14.00;8.00;;;;;;;1.53;83.21;98538.70;221567;1280;22542;-77
2023/01/31 17:04:52;;;;;;;15.00;7.90;;;;;;;1.40;83.41;98537.77;221533;1277;22658;-76
2023/01/31 17:10:01;;;;;;;15.30;8.10;;;;;;;1.26;83.79;98535.84;221685;1278;22550;-77
2023/01/31 17:15:18;;;;;;;15.30;8.80;;;;;;;1.17;84.27;98529.09;221654;1278;22545;-76
2023/01/31 17:20:21;;;;;;;16.60;8.80;;;;;;;1.08;84.58;98528.14;221865;1277;25409;-76
2023/01/31 17:25:29;;;;;;;16.00;9.10;;;;;;;1.01;85.00;98529.25;221656;1279;25609;-76
2023/01/31 17:30:33;;;;;;;15.50;8.80;;;;;;;0.94;85.30;98527.89;221740;1278;22540;-77
2023/01/31 17:35:40;;;;;;;14.30;8.90;;;;;;;0.92;85.62;98519.29;221714;1275;22556;-77
2023/01/31 17:40:44;;;;;;;20.70;10.20;;;;;;;0.92;85.62;98503.16;221462;1277;22556;-76
2023/01/31 17:45:49;;;;;;;13.90;7.90;;;;;;;0.92;86.06;98499.30;221501;1279;22598;-76
2023/01/31 17:50:52;;;;;;;15.30;9.00;;;;;;;0.93;86.33;98490.92;221539;1278;22578;-76
2023/01/31 17:55:55;;;;;;;13.40;7.60;;;;;;;0.93;86.64;98484.52;221619;1275;22533;-77
2023/01/31 18:00:56;;;;;;;11.60;7.10;;;;;;;0.93;86.93;98477.08;221504;1278;25379;-76
2023/01/31 18:06:07;;;;;;;12.20;7.20;;;;;;;0.93;87.09;98475.48;221608;1278;25351;-76
2023/01/31 18:11:12;;;;;;;9.20;5.90;;;;;;;0.95;87.26;98470.10;221514;1278;23881;-75
2023/01/31 18:16:17;;;;;;;9.10;5.80;;;;;;;0.99;87.21;98462.50;221225;1278;25430;-77
2023/01/31 18:21:21;;;;;;;13.20;6.70;;;;;;;1.01;87.34;98451.21;221467;1264;23950;-77
2023/01/31 18:26:24;;;;;;;13.90;6.60;;;;;;;1.02;87.18;98441.73;221544;1275;22538;-77
2023/01/31 18:31:30;;;;;;;13.70;6.50;;;;;;;1.01;87.38;98435.30;221354;1278;23625;-76
2023/01/31 18:36:33;;;;;;;13.10;6.60;;;;;;;1.03;87.77;98434.21;221687;1277;22546;-76
2023/01/31 18:41:35;;;;;;;12.80;7.80;;;;;;;1.02;87.75;98415.40;221504;1278;25375;-77
2023/01/31 18:46:40;;;;;;;11.70;6.20;;;;;;;1.00;87.55;98415.75;221416;1278;25307;-76
2023/01/31 18:51:42;;;;;;;11.90;6.20;;;;;;;0.99;87.76;98410.65;221451;1271;27384;-78
2023/01/31 18:56:48;;;;;;;14.60;6.30;;;;;;;0.98;88.33;98404.49;221452;1280;25448;-77
2023/01/31 19:01:51;;;;;;;11.20;6.00;;;;;;;0.99;88.61;98395.02;221454;1278;22540;-76
2023/01/31 19:06:54;;;;;;;14.70;6.80;;;;;;;1.00;88.88;98389.88;221660;1278;23768;-76
2023/01/31 19:11:56;;;;;;;12.00;6.70;;;;;;;1.02;88.59;98379.46;221419;1280;22540;-75
2023/01/31 19:16:58;;;;;;;10.40;5.50;;;;;;;1.06;88.75;98381.59;221778;1275;26759;-76
2023/01/31 19:22:00;;;;;;;12.80;6.90;;;;;;;1.08;88.87;98367.35;221485;1280;22539;-76
2023/01/31 19:27:10;;;;;;;11.90;7.40;;;;;;;1.10;89.10;98360.27;221448;1278;24285;-77
2023/01/31 19:32:12;;;;;;;15.10;7.30;;;;;;;1.10;89.13;98355.01;221518;1268;22557;-77
2023/01/31 19:37:14;;;;;;;11.80;6.40;;;;;;;1.11;88.89;98340.02;221357;1280;24373;-76
2023/01/31 19:42:16;;;;;;;15.20;8.40;;;;;;;1.13;88.99;98332.44;221383;1280;22609;-76
2023/01/31 19:47:18;;;;;;;16.40;8.60;;;;;;;1.13;89.01;98331.21;221591;1277;22588;-76
2023/01/31 19:52:20;;;;;;;19.00;9.60;;;;;;;1.14;89.10;98330.20;221193;1271;22877;-77
2023/01/31 19:57:23;;;;;;;17.00;9.70;;;;;;;1.16;89.18;98329.70;221363;1280;24284;-76
2023/01/31 20:02:25;;;;;;;21.50;11.40;;;;;;;1.16;89.29;98329.32;221436;1278;25366;-76
2023/01/31 20:07:28;;;;;;;19.30;11.20;;;;;;;1.16;89.03;98330.03;221588;1275;22548;-77
2023/01/31 20:12:29;;;;;;;22.00;11.20;;;;;;;1.15;88.81;98325.45;221560;1275;24282;-76
2023/01/31 20:17:36;;;;;;;24.10;12.70;;;;;;;1.12;89.11;98322.04;221602;1278;22667;-76
2023/01/31 20:22:40;;;;;;;22.70;11.50;;;;;;;1.10;89.06;98323.27;221432;1271;22597;-76
2023/01/31 20:27:42;;;;;;;19.40;11.70;;;;;;;1.08;89.31;98316.20;221368;1276;22567;-76
2023/01/31 20:32:46;;;;;;;23.90;12.60;;;;;;;1.06;89.62;98314.23;221527;1278;22842;-76
2023/01/31 20:37:48;;;;;;;21.30;13.70;;;;;;;1.07;89.85;98300.35;221443;1279;24206;-76
2023/01/31 20:42:51;;;;;;;29.50;15.20;;;;;;;1.08;89.88;98298.38;221689;1256;24416;-76
2023/01/31 20:47:54;;;;;;;24.20;13.10;;;;;;;1.09;89.81;98300.54;221681;1275;22548;-76
2023/01/31 20:52:56;;;;;;;20.10;11.10;;;;;;;1.10;89.61;98293.98;221911;1269;23787;-75
2023/01/31 20:57:58;;;;;;;24.90;13.20;;;;;;;1.13;89.93;98290.63;221542;1276;26724;-75
2023/01/31 21:03:02;;;;;;;24.10;11.60;;;;;;;1.17;90.05;98281.92;221346;1278;24276;-76
2023/01/31 21:08:05;;;;;;;24.90;12.80;;;;;;;1.20;90.06;98273.98;221249;1278;25355;-75
2023/01/31 21:13:07;;;;;;;23.30;14.00;;;;;;;1.23;89.46;98269.33;221505;1280;22537;-75
2023/01/31 21:18:09;;;;;;;25.90;13.00;;;;;;;1.28;89.54;98263.36;221358;1278;22583;-76
2023/01/31 21:23:12;;;;;;;20.10;12.00;;;;;;;1.33;89.44;98256.10;221470;1278;22571;-76
2023/01/31 21:28:15;;;;;;;20.20;11.80;;;;;;;1.36;89.98;98249.88;221580;1275;22596;-76
2023/01/31 21:33:25;;;;;;;16.10;10.50;;;;;;;1.41;89.75;98252.90;221590;1280;22594;-76
2023/01/31 21:38:27;;;;;;;17.60;9.50;;;;;;;1.46;89.49;98259.77;221740;1266;24749;-76
2023/01/31 21:43:29;;;;;;;14.80;8.40;;;;;;;1.52;89.57;98255.27;221554;1265;25897;-76
2023/01/31 21:48:31;;;;;;;12.20;7.30;;;;;;;1.56;89.57;98248.56;221780;1278;23860;-76
2023/01/31 21:53:34;;;;;;;12.10;6.70;;;;;;;1.61;89.70;98248.61;221656;1275;25382;-76
2023/01/31 21:58:38;;;;;;;8.70;6.40;;;;;;;1.67;89.42;98251.19;221670;1266;23331;-77
2023/01/31 22:03:44;;;;;;;7.00;4.60;;;;;;;1.73;89.11;98248.54;221581;1278;23875;-76
2023/01/31 22:08:51;;;;;;;5.40;3.50;;;;;;;1.80;89.16;98242.48;221294;1278;23287;-75
2023/01/31 22:14:03;;;;;;;6.00;4.30;;;;;;;1.87;89.21;98247.02;221543;1280;22709;-75
2023/01/31 22:19:05;;;;;;;6.50;3.80;;;;;;;1.93;89.10;98244.48;222028;1263;23221;-76
2023/01/31 22:24:10;;;;;;;5.40;3.20;;;;;;;1.98;88.72;98253.20;221622;1278;24254;-76
2023/01/31 22:29:15;;;;;;;5.40;3.00;;;;;;;1.99;88.53;98254.84;221657;1268;25246;-76
2023/01/31 22:34:17;;;;;;;4.60;3.00;;;;;;;2.02;88.50;98252.66;221589;1276;26407;-75
2023/01/31 22:39:20;;;;;;;6.00;3.00;;;;;;;2.04;88.19;98246.02;221640;1269;22548;-76
2023/01/31 22:44:22;;;;;;;5.30;3.10;;;;;;;2.05;88.41;98223.01;221455;1277;24252;-77
2023/01/31 22:49:24;;;;;;;4.60;3.10;;;;;;;2.06;88.30;98220.02;221674;1279;23276;-75
2023/01/31 22:54:26;;;;;;;5.10;3.30;;;;;;;2.05;87.96;98217.80;221245;1280;22538;-76
2023/01/31 22:59:28;;;;;;;6.90;3.90;;;;;;;2.06;88.07;98228.16;221430;1275;24801;-76
2023/01/31 23:04:30;;;;;;;6.50;3.80;;;;;;;2.07;88.41;98240.17;221433;1278;22540;-74
2023/01/31 23:09:32;;;;;;;6.20;3.70;;;;;;;2.10;88.22;98239.84;221520;1278;22546;-76
2023/01/31 23:14:34;;;;;;;5.40;3.40;;;;;;;2.13;87.76;98254.73;221689;1275;22574;-76
2023/01/31 23:19:36;;;;;;;5.70;3.30;;;;;;;2.15;88.10;98256.83;221493;1280;22543;-75
2023/01/31 23:24:38;;;;;;;4.00;2.70;;;;;;;2.14;88.13;98239.85;221760;1276;24271;-76
2023/01/31 23:29:43;;;;;;;5.20;3.30;;;;;;;2.11;87.56;98222.29;221461;1278;24552;-76
2023/01/31 23:34:45;;;;;;;4.90;3.00;;;;;;;2.05;87.72;98223.75;221521;1280;25276;-75
2023/01/31 23:39:48;;;;;;;4.80;2.80;;;;;;;2.01;87.85;98221.71;221461;1280;22545;-76
2023/01/31 23:44:50;;;;;;;4.00;2.80;;;;;;;1.99;88.50;98213.36;221639;1278;22538;-76
2023/01/31 23:49:52;;;;;;;3.50;2.50;;;;;;;1.98;88.38;98216.08;221584;1273;22560;-75
2023/01/31 23:54:54;;;;;;;4.50;3.20;;;;;;;1.94;88.19;98222.88;221545;1273;23899;-76